sensor_id;sensor_type;location;lat;lon;timestamp;pressure;altitude;pressure_sealevel;temperature;humidity
69971;BME280;57301;50.328;8.542;2023-12-20T00:01:02;98378.88;;;6.27;94.29
69971;BME280;57301;50.328;8.542;2023-12-20T00:03:28;98377.34;;;6.13;93.83
69971;BME280;57301;50.328;8.542;2023-12-20T00:06:06;98372.16;;;6.02;94.86
69971;BME280;57301;50.328;8.542;2023-12-20T00:08:33;98367.75;;;6.12;94.20
69971;BME280;57301;50.328;8.542;2023-12-20T00:11:00;98370.00;;;6.16;94.13
69971;BME280;57301;50.328;8.542;2023-12-20T00:13:26;98365.59;;;6.06;94.32
69971;BME280;57301;50.328;8.542;2023-12-20T00:15:53;98364.91;;;6.04;94.16
69971;BME280;57301;50.328;8.542;2023-12-20T00:18:19;98371.63;;;6.08;94.13
69971;BME280;57301;50.328;8.542;2023-12-20T00:20:46;98366.72;;;6.03;95.04
69971;BME280;57301;50.328;8.542;2023-12-20T00:23:12;98359.03;;;6.00;94.43
69971;BME280;57301;50.328;8.542;2023-12-20T00:25:39;98359.84;;;6.01;94.75
69971;BME280;57301;50.328;8.542;2023-12-20T00:28:06;98352.50;;;6.04;94.87
69971;BME280;57301;50.328;8.542;2023-12-20T00:30:33;98358.25;;;6.09;94.53
69971;BME280;57301;50.328;8.542;2023-12-20T00:33:00;98352.38;;;6.06;94.64
69971;BME280;57301;50.328;8.542;2023-12-20T00:35:26;98365.88;;;6.03;94.91
69971;BME280;57301;50.328;8.542;2023-12-20T00:37:53;98368.91;;;5.98;94.96
69971;BME280;57301;50.328;8.542;2023-12-20T00:40:19;98362.19;;;5.94;95.34
69971;BME280;57301;50.328;8.542;2023-12-20T00:42:47;98364.22;;;6.02;95.23
69971;BME280;57301;50.328;8.542;2023-12-20T00:45:14;98361.22;;;6.16;94.74
69971;BME280;57301;50.328;8.542;2023-12-20T00:47:41;98367.38;;;6.16;94.60
69971;BME280;57301;50.328;8.542;2023-12-20T00:50:08;98373.16;;;6.10;94.43
69971;BME280;57301;50.328;8.542;2023-12-20T00:52:35;98369.03;;;6.17;94.69
69971;BME280;57301;50.328;8.542;2023-12-20T00:55:02;98367.59;;;6.13;94.45
69971;BME280;57301;50.328;8.542;2023-12-20T00:57:30;98361.22;;;6.16;94.32
69971;BME280;57301;50.328;8.542;2023-12-20T00:59:57;98357.84;;;5.93;95.13
69971;BME280;57301;50.328;8.542;2023-12-20T01:02:24;98350.47;;;6.08;95.05
69971;BME280;57301;50.328;8.542;2023-12-20T01:04:50;98349.06;;;6.13;94.56
69971;BME280;57301;50.328;8.542;2023-12-20T01:07:17;98338.69;;;6.01;94.85
69971;BME280;57301;50.328;8.542;2023-12-20T01:09:43;98340.56;;;6.10;94.88
69971;BME280;57301;50.328;8.542;2023-12-20T01:12:10;98347.94;;;6.27;94.16
69971;BME280;57301;50.328;8.542;2023-12-20T01:14:37;98344.25;;;6.18;94.35
69971;BME280;57301;50.328;8.542;2023-12-20T01:17:03;98342.84;;;6.14;94.65
69971;BME280;57301;50.328;8.542;2023-12-20T01:19:30;98341.06;;;6.25;94.19
69971;BME280;57301;50.328;8.542;2023-12-20T01:21:56;98342.03;;;6.24;93.65
69971;BME280;57301;50.328;8.542;2023-12-20T01:24:23;98335.06;;;6.23;94.26
69971;BME280;57301;50.328;8.542;2023-12-20T01:26:49;98337.44;;;6.26;93.70
69971;BME280;57301;50.328;8.542;2023-12-20T01:29:16;98340.00;;;6.27;93.40
69971;BME280;57301;50.328;8.542;2023-12-20T01:31:43;98348.03;;;6.26;93.77
69971;BME280;57301;50.328;8.542;2023-12-20T01:34:09;98341.97;;;6.35;93.55
69971;BME280;57301;50.328;8.542;2023-12-20T01:36:36;98349.84;;;6.46;93.15
69971;BME280;57301;50.328;8.542;2023-12-20T01:39:02;98347.50;;;6.32;93.46
69971;BME280;57301;50.328;8.542;2023-12-20T01:41:33;98362.59;;;6.10;94.07
69971;BME280;57301;50.328;8.542;2023-12-20T01:43:59;98363.50;;;6.21;94.37
69971;BME280;57301;50.328;8.542;2023-12-20T01:46:26;98361.94;;;6.18;94.22
69971;BME280;57301;50.328;8.542;2023-12-20T01:48:53;98357.41;;;6.30;94.35
69971;BME280;57301;50.328;8.542;2023-12-20T01:51:20;98363.38;;;6.22;94.15
69971;BME280;57301;50.328;8.542;2023-12-20T01:53:47;98367.50;;;6.15;94.42
69971;BME280;57301;50.328;8.542;2023-12-20T01:56:15;98354.63;;;6.31;94.33
69971;BME280;57301;50.328;8.542;2023-12-20T01:58:46;98358.38;;;6.29;94.12
69971;BME280;57301;50.328;8.542;2023-12-20T02:01:14;98358.00;;;6.12;94.61
69971;BME280;57301;50.328;8.542;2023-12-20T02:03:41;98356.50;;;6.19;94.61
69971;BME280;57301;50.328;8.542;2023-12-20T02:06:09;98345.91;;;6.19;94.53
69971;BME280;57301;50.328;8.542;2023-12-20T02:08:36;98349.06;;;6.13;94.61
69971;BME280;57301;50.328;8.542;2023-12-20T02:11:02;98346.38;;;6.04;94.77
69971;BME280;57301;50.328;8.542;2023-12-20T02:13:31;98342.38;;;6.09;94.55
69971;BME280;57301;50.328;8.542;2023-12-20T02:15:58;98331.16;;;5.96;95.23
69971;BME280;57301;50.328;8.542;2023-12-20T02:18:25;98336.81;;;6.12;94.81
69971;BME280;57301;50.328;8.542;2023-12-20T02:20:52;98339.22;;;6.15;94.75
69971;BME280;57301;50.328;8.542;2023-12-20T02:23:19;98335.53;;;6.07;94.50
69971;BME280;57301;50.328;8.542;2023-12-20T02:25:46;98343.03;;;6.23;93.77
69971;BME280;57301;50.328;8.542;2023-12-20T02:28:13;98337.38;;;6.37;93.82
69971;BME280;57301;50.328;8.542;2023-12-20T02:30:39;98330.16;;;6.39;93.34
69971;BME280;57301;50.328;8.542;2023-12-20T02:33:10;98329.66;;;6.55;92.72
69971;BME280;57301;50.328;8.542;2023-12-20T02:35:38;98330.44;;;6.15;92.80
69971;BME280;57301;50.328;8.542;2023-12-20T02:38:04;98341.13;;;6.34;93.45
69971;BME280;57301;50.328;8.542;2023-12-20T02:40:31;98341.13;;;6.13;93.85
69971;BME280;57301;50.328;8.542;2023-12-20T02:42:58;98337.59;;;6.45;92.92
69971;BME280;57301;50.328;8.542;2023-12-20T02:45:26;98335.75;;;6.45;92.54
69971;BME280;57301;50.328;8.542;2023-12-20T02:47:52;98338.19;;;6.58;92.47
69971;BME280;57301;50.328;8.542;2023-12-20T02:50:19;98342.47;;;6.50;93.10
69971;BME280;57301;50.328;8.542;2023-12-20T02:52:46;98339.63;;;6.41;92.47
69971;BME280;57301;50.328;8.542;2023-12-20T02:55:12;98354.09;;;6.58;92.84
69971;BME280;57301;50.328;8.542;2023-12-20T02:57:39;98360.06;;;6.51;92.83
69971;BME280;57301;50.328;8.542;2023-12-20T03:00:09;98357.88;;;6.65;92.71
69971;BME280;57301;50.328;8.542;2023-12-20T03:02:37;98356.19;;;6.34;94.45
69971;BME280;57301;50.328;8.542;2023-12-20T03:05:03;98351.88;;;6.63;93.70
69971;BME280;57301;50.328;8.542;2023-12-20T03:07:30;98354.94;;;6.59;93.91
69971;BME280;57301;50.328;8.542;2023-12-20T03:09:57;98349.34;;;6.62;93.78
69971;BME280;57301;50.328;8.542;2023-12-20T03:12:43;98360.31;;;6.47;94.84
69971;BME280;57301;50.328;8.542;2023-12-20T03:15:10;98362.81;;;6.49;94.41
69971;BME280;57301;50.328;8.542;2023-12-20T03:17:37;98365.16;;;6.42;94.91
69971;BME280;57301;50.328;8.542;2023-12-20T03:20:04;98369.59;;;6.42;95.33
69971;BME280;57301;50.328;8.542;2023-12-20T03:22:31;98378.25;;;6.44;95.35
69971;BME280;57301;50.328;8.542;2023-12-20T03:24:57;98373.63;;;6.57;94.74
69971;BME280;57301;50.328;8.542;2023-12-20T03:27:25;98389.47;;;6.78;94.09
69971;BME280;57301;50.328;8.542;2023-12-20T03:29:51;98383.91;;;6.51;94.46
69971;BME280;57301;50.328;8.542;2023-12-20T03:32:18;98387.09;;;6.54;94.84
69971;BME280;57301;50.328;8.542;2023-12-20T03:34:44;98381.41;;;6.59;94.17
69971;BME280;57301;50.328;8.542;2023-12-20T03:37:11;98386.19;;;6.44;94.81
69971;BME280;57301;50.328;8.542;2023-12-20T03:39:37;98385.16;;;6.56;94.13
69971;BME280;57301;50.328;8.542;2023-12-20T03:42:04;98388.84;;;6.44;94.22
69971;BME280;57301;50.328;8.542;2023-12-20T03:44:30;98393.09;;;6.56;93.97
69971;BME280;57301;50.328;8.542;2023-12-20T03:46:57;98397.84;;;6.53;93.87
69971;BME280;57301;50.328;8.542;2023-12-20T03:49:23;98389.13;;;6.41;94.20
69971;BME280;57301;50.328;8.542;2023-12-20T03:51:50;98388.53;;;6.37;94.06
69971;BME280;57301;50.328;8.542;2023-12-20T03:54:16;98382.06;;;6.30;94.56
69971;BME280;57301;50.328;8.542;2023-12-20T03:56:43;98387.25;;;6.32;93.75
69971;BME280;57301;50.328;8.542;2023-12-20T03:59:09;98390.75;;;6.63;92.93
69971;BME280;57301;50.328;8.542;2023-12-20T04:01:36;98390.09;;;6.40;93.66
69971;BME280;57301;50.328;8.542;2023-12-20T04:04:03;98386.34;;;6.22;94.21
69971;BME280;57301;50.328;8.542;2023-12-20T04:06:30;98387.19;;;6.22;93.97
69971;BME280;57301;50.328;8.542;2023-12-20T04:08:56;98387.31;;;6.41;93.29
69971;BME280;57301;50.328;8.542;2023-12-20T04:11:23;98389.25;;;6.39;93.10
69971;BME280;57301;50.328;8.542;2023-12-20T04:13:49;98384.47;;;6.54;92.87
69971;BME280;57301;50.328;8.542;2023-12-20T04:16:15;98392.78;;;6.50;92.91
69971;BME280;57301;50.328;8.542;2023-12-20T04:18:42;98402.31;;;6.52;93.22
69971;BME280;57301;50.328;8.542;2023-12-20T04:21:09;98397.47;;;6.57;92.87
69971;BME280;57301;50.328;8.542;2023-12-20T04:23:35;98409.41;;;6.52;93.19
69971;BME280;57301;50.328;8.542;2023-12-20T04:26:02;98407.72;;;6.51;93.08
69971;BME280;57301;50.328;8.542;2023-12-20T04:28:28;98405.66;;;6.33;93.60
69971;BME280;57301;50.328;8.542;2023-12-20T04:30:56;98401.06;;;6.14;92.96
69971;BME280;57301;50.328;8.542;2023-12-20T04:33:23;98413.75;;;6.00;92.15
69971;BME280;57301;50.328;8.542;2023-12-20T04:35:50;98417.47;;;6.08;91.84
69971;BME280;57301;50.328;8.542;2023-12-20T04:38:16;98435.72;;;6.11;91.85
69971;BME280;57301;50.328;8.542;2023-12-20T04:40:43;98425.97;;;5.91;91.51
69971;BME280;57301;50.328;8.542;2023-12-20T04:43:09;98422.34;;;5.92;91.64
69971;BME280;57301;50.328;8.542;2023-12-20T04:45:36;98415.53;;;5.67;92.79
69971;BME280;57301;50.328;8.542;2023-12-20T04:48:03;98436.78;;;5.77;91.54
69971;BME280;57301;50.328;8.542;2023-12-20T04:50:30;98445.38;;;5.58;90.92
69971;BME280;57301;50.328;8.542;2023-12-20T04:52:57;98445.16;;;5.50;89.25
69971;BME280;57301;50.328;8.542;2023-12-20T04:55:23;98455.72;;;5.50;89.51
69971;BME280;57301;50.328;8.542;2023-12-20T04:57:50;98446.41;;;5.34;89.49
69971;BME280;57301;50.328;8.542;2023-12-20T05:00:16;98455.25;;;5.33;89.38
69971;BME280;57301;50.328;8.542;2023-12-20T05:02:43;98453.72;;;5.31;89.59
69971;BME280;57301;50.328;8.542;2023-12-20T05:05:10;98447.72;;;5.18;89.46
69971;BME280;57301;50.328;8.542;2023-12-20T05:07:37;98454.19;;;5.25;89.73
69971;BME280;57301;50.328;8.542;2023-12-20T05:10:04;98456.63;;;5.17;89.48
69971;BME280;57301;50.328;8.542;2023-12-20T05:12:31;98448.91;;;5.13;89.15
69971;BME280;57301;50.328;8.542;2023-12-20T05:14:58;98460.31;;;5.25;88.07
69971;BME280;57301;50.328;8.542;2023-12-20T05:17:24;98460.31;;;5.25;88.43
69971;BME280;57301;50.328;8.542;2023-12-20T05:19:51;98448.66;;;5.28;87.91
69971;BME280;57301;50.328;8.542;2023-12-20T05:22:19;98444.53;;;5.46;87.43
69971;BME280;57301;50.328;8.542;2023-12-20T05:24:46;98440.72;;;5.50;87.13
69971;BME280;57301;50.328;8.542;2023-12-20T05:27:13;98445.91;;;5.29;87.60
69971;BME280;57301;50.328;8.542;2023-12-20T05:29:39;98452.03;;;5.19;87.85
69971;BME280;57301;50.328;8.542;2023-12-20T05:32:06;98448.69;;;5.17;88.02
69971;BME280;57301;50.328;8.542;2023-12-20T05:34:33;98459.25;;;4.94;88.59
69971;BME280;57301;50.328;8.542;2023-12-20T05:36:59;98455.16;;;5.01;88.54
69971;BME280;57301;50.328;8.542;2023-12-20T05:39:28;98463.06;;;4.90;88.73
69971;BME280;57301;50.328;8.542;2023-12-20T05:41:54;98469.34;;;5.11;89.01
69971;BME280;57301;50.328;8.542;2023-12-20T05:44:21;98471.97;;;4.89;89.02
69971;BME280;57301;50.328;8.542;2023-12-20T05:46:47;98458.44;;;5.16;89.08
69971;BME280;57301;50.328;8.542;2023-12-20T05:49:14;98455.53;;;5.08;88.85
69971;BME280;57301;50.328;8.542;2023-12-20T05:51:41;98464.53;;;5.05;88.60
69971;BME280;57301;50.328;8.542;2023-12-20T05:54:09;98457.19;;;5.09;88.71
69971;BME280;57301;50.328;8.542;2023-12-20T05:56:35;98450.84;;;4.89;88.47
69971;BME280;57301;50.328;8.542;2023-12-20T05:59:02;98464.06;;;5.00;87.78
69971;BME280;57301;50.328;8.542;2023-12-20T06:01:29;98462.25;;;4.90;88.28
69971;BME280;57301;50.328;8.542;2023-12-20T06:03:56;98467.16;;;4.83;87.81
69971;BME280;57301;50.328;8.542;2023-12-20T06:06:23;98476.53;;;4.76;88.20
69971;BME280;57301;50.328;8.542;2023-12-20T06:08:50;98485.75;;;4.70;88.51
69971;BME280;57301;50.328;8.542;2023-12-20T06:11:16;98479.16;;;4.76;88.52
69971;BME280;57301;50.328;8.542;2023-12-20T06:13:43;98474.63;;;5.00;88.33
69971;BME280;57301;50.328;8.542;2023-12-20T06:16:10;98485.53;;;4.96;87.92
69971;BME280;57301;50.328;8.542;2023-12-20T06:18:36;98477.00;;;4.81;88.32
69971;BME280;57301;50.328;8.542;2023-12-20T06:21:04;98472.19;;;4.75;88.77
69971;BME280;57301;50.328;8.542;2023-12-20T06:23:31;98465.00;;;4.77;88.29
69971;BME280;57301;50.328;8.542;2023-12-20T06:25:57;98464.78;;;4.91;88.47
69971;BME280;57301;50.328;8.542;2023-12-20T06:28:24;98465.47;;;4.71;88.52
69971;BME280;57301;50.328;8.542;2023-12-20T06:30:50;98470.50;;;4.63;88.56
69971;BME280;57301;50.328;8.542;2023-12-20T06:33:19;98470.97;;;4.56;88.30
69971;BME280;57301;50.328;8.542;2023-12-20T06:35:48;98474.47;;;4.68;87.89
69971;BME280;57301;50.328;8.542;2023-12-20T06:38:14;98480.56;;;4.57;88.54
69971;BME280;57301;50.328;8.542;2023-12-20T06:40:41;98485.72;;;4.59;88.34
69971;BME280;57301;50.328;8.542;2023-12-20T06:43:09;98489.19;;;4.59;88.23
69971;BME280;57301;50.328;8.542;2023-12-20T06:45:49;98495.75;;;4.89;87.43
69971;BME280;57301;50.328;8.542;2023-12-20T06:48:16;98497.41;;;4.68;87.62
69971;BME280;57301;50.328;8.542;2023-12-20T06:50:42;98491.50;;;4.64;88.00
69971;BME280;57301;50.328;8.542;2023-12-20T06:53:09;98496.22;;;4.83;88.51
69971;BME280;57301;50.328;8.542;2023-12-20T06:55:35;98491.78;;;4.83;88.52
69971;BME280;57301;50.328;8.542;2023-12-20T06:58:04;98508.84;;;4.91;87.95
69971;BME280;57301;50.328;8.542;2023-12-20T07:00:31;98505.63;;;4.98;87.86
69971;BME280;57301;50.328;8.542;2023-12-20T07:02:59;98504.41;;;5.02;88.00
69971;BME280;57301;50.328;8.542;2023-12-20T07:05:25;98502.38;;;5.06;87.58
69971;BME280;57301;50.328;8.542;2023-12-20T07:07:53;98508.47;;;4.84;87.62
69971;BME280;57301;50.328;8.542;2023-12-20T07:10:20;98505.94;;;4.82;87.59
69971;BME280;57301;50.328;8.542;2023-12-20T07:12:46;98514.13;;;4.91;86.96
69971;BME280;57301;50.328;8.542;2023-12-20T07:15:15;98509.44;;;4.94;87.45
69971;BME280;57301;50.328;8.542;2023-12-20T07:17:41;98508.25;;;4.87;87.04
69971;BME280;57301;50.328;8.542;2023-12-20T07:20:09;98503.19;;;4.95;87.52
69971;BME280;57301;50.328;8.542;2023-12-20T07:22:37;98506.81;;;4.94;87.17
69971;BME280;57301;50.328;8.542;2023-12-20T07:25:04;98507.31;;;4.99;87.69
69971;BME280;57301;50.328;8.542;2023-12-20T07:27:31;98515.56;;;4.95;87.35
69971;BME280;57301;50.328;8.542;2023-12-20T07:29:57;98522.69;;;5.05;87.22
69971;BME280;57301;50.328;8.542;2023-12-20T07:32:24;98505.84;;;4.95;87.65
69971;BME280;57301;50.328;8.542;2023-12-20T07:34:51;98504.91;;;5.19;87.59
69971;BME280;57301;50.328;8.542;2023-12-20T07:37:18;98512.22;;;4.93;88.64
69971;BME280;57301;50.328;8.542;2023-12-20T07:39:44;98512.06;;;4.83;88.47
69971;BME280;57301;50.328;8.542;2023-12-20T07:42:11;98515.34;;;4.87;89.19
69971;BME280;57301;50.328;8.542;2023-12-20T07:44:37;98511.28;;;5.16;88.76
69971;BME280;57301;50.328;8.542;2023-12-20T07:47:04;98508.63;;;5.05;88.91
69971;BME280;57301;50.328;8.542;2023-12-20T07:49:31;98509.94;;;4.88;88.69
69971;BME280;57301;50.328;8.542;2023-12-20T07:51:58;98517.75;;;5.01;89.15
69971;BME280;57301;50.328;8.542;2023-12-20T07:54:25;98519.56;;;5.00;89.41
69971;BME280;57301;50.328;8.542;2023-12-20T07:56:52;98524.09;;;4.87;88.88
69971;BME280;57301;50.328;8.542;2023-12-20T07:59:21;98527.34;;;5.02;88.19
69971;BME280;57301;50.328;8.542;2023-12-20T08:01:58;98532.03;;;4.87;88.81
69971;BME280;57301;50.328;8.542;2023-12-20T08:04:25;98537.34;;;4.98;89.39
69971;BME280;57301;50.328;8.542;2023-12-20T08:06:52;98529.88;;;5.15;88.64
69971;BME280;57301;50.328;8.542;2023-12-20T08:09:19;98527.00;;;5.06;88.47
69971;BME280;57301;50.328;8.542;2023-12-20T08:11:48;98538.44;;;5.18;88.77
69971;BME280;57301;50.328;8.542;2023-12-20T08:14:15;98534.00;;;5.19;87.76
69971;BME280;57301;50.328;8.542;2023-12-20T08:16:45;98527.50;;;5.11;88.36
69971;BME280;57301;50.328;8.542;2023-12-20T08:19:11;98529.31;;;5.22;86.79
69971;BME280;57301;50.328;8.542;2023-12-20T08:21:38;98523.28;;;5.31;86.63
69971;BME280;57301;50.328;8.542;2023-12-20T08:24:05;98530.59;;;5.84;85.12
69971;BME280;57301;50.328;8.542;2023-12-20T08:26:32;98525.38;;;6.48;81.97
69971;BME280;57301;50.328;8.542;2023-12-20T08:28:59;98535.13;;;6.15;82.96
69971;BME280;57301;50.328;8.542;2023-12-20T08:31:28;98530.56;;;6.70;81.65
69971;BME280;57301;50.328;8.542;2023-12-20T08:33:55;98528.53;;;7.05;79.77
69971;BME280;57301;50.328;8.542;2023-12-20T08:36:22;98528.94;;;6.79;79.24
69971;BME280;57301;50.328;8.542;2023-12-20T08:38:50;98535.78;;;7.03;78.51
69971;BME280;57301;50.328;8.542;2023-12-20T08:41:17;98536.75;;;6.60;80.02
69971;BME280;57301;50.328;8.542;2023-12-20T08:43:44;98539.09;;;6.95;79.19
69971;BME280;57301;50.328;8.542;2023-12-20T08:46:10;98536.13;;;7.40;78.08
69971;BME280;57301;50.328;8.542;2023-12-20T08:48:38;98537.44;;;6.94;79.07
69971;BME280;57301;50.328;8.542;2023-12-20T08:51:05;98536.56;;;6.52;80.12
69971;BME280;57301;50.328;8.542;2023-12-20T08:53:35;98538.19;;;6.32;81.64
69971;BME280;57301;50.328;8.542;2023-12-20T08:56:01;98540.97;;;6.30;82.51
69971;BME280;57301;50.328;8.542;2023-12-20T08:58:28;98543.13;;;6.25;82.37
69971;BME280;57301;50.328;8.542;2023-12-20T09:00:55;98543.06;;;6.15;82.39
69971;BME280;57301;50.328;8.542;2023-12-20T09:03:23;98538.84;;;6.98;83.05
69971;BME280;57301;50.328;8.542;2023-12-20T09:05:50;98540.31;;;7.12;82.56
69971;BME280;57301;50.328;8.542;2023-12-20T09:08:17;98539.28;;;7.03;81.85
69971;BME280;57301;50.328;8.542;2023-12-20T09:10:43;98538.16;;;7.06;79.87
69971;BME280;57301;50.328;8.542;2023-12-20T09:13:11;98536.94;;;7.10;80.44
69971;BME280;57301;50.328;8.542;2023-12-20T09:15:37;98535.41;;;7.07;81.20
69971;BME280;57301;50.328;8.542;2023-12-20T09:18:04;98539.91;;;7.37;80.34
69971;BME280;57301;50.328;8.542;2023-12-20T09:20:31;98539.41;;;7.53;78.65
69971;BME280;57301;50.328;8.542;2023-12-20T09:22:58;98539.63;;;6.89;79.39
69971;BME280;57301;50.328;8.542;2023-12-20T09:25:25;98541.81;;;6.84;79.84
69971;BME280;57301;50.328;8.542;2023-12-20T09:27:52;98552.16;;;6.34;81.46
69971;BME280;57301;50.328;8.542;2023-12-20T09:30:19;98548.66;;;6.33;82.02
69971;BME280;57301;50.328;8.542;2023-12-20T09:32:54;98558.03;;;6.37;81.78
69971;BME280;57301;50.328;8.542;2023-12-20T09:35:20;98555.88;;;6.31;81.64
69971;BME280;57301;50.328;8.542;2023-12-20T09:37:47;98562.78;;;6.23;82.63
69971;BME280;57301;50.328;8.542;2023-12-20T09:40:14;98557.38;;;6.13;82.08
69971;BME280;57301;50.328;8.542;2023-12-20T09:42:56;98568.63;;;6.37;81.84
69971;BME280;57301;50.328;8.542;2023-12-20T09:45:23;98561.69;;;6.25;82.05
69971;BME280;57301;50.328;8.542;2023-12-20T09:47:52;98553.34;;;5.98;82.02
69971;BME280;57301;50.328;8.542;2023-12-20T09:50:21;98561.00;;;6.44;82.28
69971;BME280;57301;50.328;8.542;2023-12-20T09:52:53;98547.41;;;6.49;81.37
69971;BME280;57301;50.328;8.542;2023-12-20T09:55:24;98541.94;;;7.03;80.01
69971;BME280;57301;50.328;8.542;2023-12-20T09:57:51;98539.75;;;7.08;78.54
69971;BME280;57301;50.328;8.542;2023-12-20T10:00:18;98551.53;;;7.46;78.21
69971;BME280;57301;50.328;8.542;2023-12-20T10:02:56;98559.00;;;7.10;78.18
69971;BME280;57301;50.328;8.542;2023-12-20T10:05:28;98550.88;;;7.02;78.25
69971;BME280;57301;50.328;8.542;2023-12-20T10:07:55;98545.81;;;6.99;78.87
69971;BME280;57301;50.328;8.542;2023-12-20T10:10:22;98557.91;;;6.71;79.54
69971;BME280;57301;50.328;8.542;2023-12-20T10:13:04;98550.53;;;6.74;79.84
69971;BME280;57301;50.328;8.542;2023-12-20T10:15:35;98538.47;;;6.82;79.90
69971;BME280;57301;50.328;8.542;2023-12-20T10:18:03;98531.88;;;7.27;77.83
69971;BME280;57301;50.328;8.542;2023-12-20T10:20:30;98518.56;;;7.89;76.40
69971;BME280;57301;50.328;8.542;2023-12-20T10:22:58;98506.41;;;7.46;76.46
69971;BME280;57301;50.328;8.542;2023-12-20T10:25:26;98511.34;;;7.50;76.44
69971;BME280;57301;50.328;8.542;2023-12-20T10:28:13;98510.63;;;8.08;73.96
69971;BME280;57301;50.328;8.542;2023-12-20T10:30:40;98489.59;;;10.21;66.58
69971;BME280;57301;50.328;8.542;2023-12-20T10:33:09;98496.88;;;11.17;62.92
69971;BME280;57301;50.328;8.542;2023-12-20T10:35:37;98495.41;;;12.57;57.69
69971;BME280;57301;50.328;8.542;2023-12-20T10:38:07;98493.00;;;12.05;57.43
69971;BME280;57301;50.328;8.542;2023-12-20T10:40:34;98487.44;;;10.96;61.30
69971;BME280;57301;50.328;8.542;2023-12-20T10:43:03;98482.41;;;11.19;60.54
69971;BME280;57301;50.328;8.542;2023-12-20T10:45:30;98486.34;;;11.07;61.31
69971;BME280;57301;50.328;8.542;2023-12-20T10:47:58;98473.47;;;13.03;55.96
69971;BME280;57301;50.328;8.542;2023-12-20T10:50:27;98485.81;;;11.72;57.91
69971;BME280;57301;50.328;8.542;2023-12-20T10:52:55;98479.03;;;10.65;62.11
69971;BME280;57301;50.328;8.542;2023-12-20T10:55:23;98470.94;;;11.01;61.00
69971;BME280;57301;50.328;8.542;2023-12-20T10:58:00;98475.81;;;11.74;58.26
69971;BME280;57301;50.328;8.542;2023-12-20T11:00:29;98469.31;;;11.76;56.77
69971;BME280;57301;50.328;8.542;2023-12-20T11:03:00;98477.13;;;11.70;58.85
69971;BME280;57301;50.328;8.542;2023-12-20T11:05:50;98481.69;;;10.65;62.00
69971;BME280;57301;50.328;8.542;2023-12-20T11:08:28;98476.59;;;11.58;59.38
69971;BME280;57301;50.328;8.542;2023-12-20T11:13:35;98477.47;;;9.91;62.63
69971;BME280;57301;50.328;8.542;2023-12-20T11:16:04;98485.09;;;9.22;66.51
69971;BME280;57301;50.328;8.542;2023-12-20T11:18:31;98489.00;;;8.61;67.66
69971;BME280;57301;50.328;8.542;2023-12-20T11:21:02;98483.84;;;9.16;66.63
69971;BME280;57301;50.328;8.542;2023-12-20T11:23:31;98484.53;;;8.52;68.51
69971;BME280;57301;50.328;8.542;2023-12-20T11:26:01;98472.06;;;8.14;69.53
69971;BME280;57301;50.328;8.542;2023-12-20T11:28:29;98480.44;;;8.09;70.54
69971;BME280;57301;50.328;8.542;2023-12-20T11:31:01;98489.22;;;7.90;71.01
69971;BME280;57301;50.328;8.542;2023-12-20T11:33:36;98481.06;;;7.63;71.20
69971;BME280;57301;50.328;8.542;2023-12-20T11:36:07;98483.03;;;7.30;72.53
69971;BME280;57301;50.328;8.542;2023-12-20T11:38:53;98480.56;;;7.08;73.40
69971;BME280;57301;50.328;8.542;2023-12-20T11:41:22;98479.22;;;7.13;73.93
69971;BME280;57301;50.328;8.542;2023-12-20T11:43:53;98479.09;;;6.94;75.30
69971;BME280;57301;50.328;8.542;2023-12-20T11:46:20;98468.50;;;6.94;75.50
69971;BME280;57301;50.328;8.542;2023-12-20T11:48:47;98474.56;;;6.85;74.69
69971;BME280;57301;50.328;8.542;2023-12-20T11:51:14;98463.72;;;6.88;75.81
69971;BME280;57301;50.328;8.542;2023-12-20T11:53:41;98464.81;;;7.16;75.55
69971;BME280;57301;50.328;8.542;2023-12-20T11:56:11;98450.03;;;7.53;73.27
69971;BME280;57301;50.328;8.542;2023-12-20T11:58:38;98452.31;;;7.27;75.60
69971;BME280;57301;50.328;8.542;2023-12-20T12:01:05;98444.25;;;7.39;74.97
69971;BME280;57301;50.328;8.542;2023-12-20T12:03:35;98439.13;;;7.47;75.12
69971;BME280;57301;50.328;8.542;2023-12-20T12:06:02;98445.84;;;7.51;74.99
69971;BME280;57301;50.328;8.542;2023-12-20T12:08:31;98442.28;;;8.00;72.58
69971;BME280;57301;50.328;8.542;2023-12-20T12:10:58;98450.28;;;8.29;71.06
69971;BME280;57301;50.328;8.542;2023-12-20T12:13:25;98447.47;;;8.41;70.15
69971;BME280;57301;50.328;8.542;2023-12-20T12:15:54;98439.91;;;8.55;70.52
69971;BME280;57301;50.328;8.542;2023-12-20T12:18:21;98444.25;;;9.68;66.68
69971;BME280;57301;50.328;8.542;2023-12-20T12:20:47;98450.81;;;8.62;69.58
69971;BME280;57301;50.328;8.542;2023-12-20T12:23:14;98453.28;;;8.93;68.76
69971;BME280;57301;50.328;8.542;2023-12-20T12:25:41;98450.28;;;8.39;71.65
69971;BME280;57301;50.328;8.542;2023-12-20T12:28:09;98441.13;;;8.80;70.54
69971;BME280;57301;50.328;8.542;2023-12-20T12:30:36;98451.91;;;8.79;69.39
69971;BME280;57301;50.328;8.542;2023-12-20T12:33:11;98436.31;;;8.94;67.75
69971;BME280;57301;50.328;8.542;2023-12-20T12:35:40;98442.28;;;10.33;65.68
69971;BME280;57301;50.328;8.542;2023-12-20T12:38:07;98440.19;;;9.46;66.32
69971;BME280;57301;50.328;8.542;2023-12-20T12:40:35;98436.97;;;9.42;68.20
69971;BME280;57301;50.328;8.542;2023-12-20T12:43:02;98429.13;;;8.57;70.71
69971;BME280;57301;50.328;8.542;2023-12-20T12:45:30;98414.53;;;10.08;65.56
69971;BME280;57301;50.328;8.542;2023-12-20T12:47:57;98420.81;;;9.54;67.13
69971;BME280;57301;50.328;8.542;2023-12-20T12:50:24;98407.25;;;8.82;69.30
69971;BME280;57301;50.328;8.542;2023-12-20T12:52:51;98410.81;;;9.83;66.91
69971;BME280;57301;50.328;8.542;2023-12-20T12:55:17;98406.03;;;8.67;70.68
69971;BME280;57301;50.328;8.542;2023-12-20T12:57:44;98412.50;;;8.16;73.97
69971;BME280;57301;50.328;8.542;2023-12-20T13:00:12;98397.53;;;8.15;74.40
69971;BME280;57301;50.328;8.542;2023-12-20T13:02:38;98396.72;;;8.05;73.58
69971;BME280;57301;50.328;8.542;2023-12-20T13:05:08;98383.75;;;7.92;74.38
69971;BME280;57301;50.328;8.542;2023-12-20T13:07:35;98383.16;;;7.79;74.59
69971;BME280;57301;50.328;8.542;2023-12-20T13:10:04;98374.91;;;7.72;74.97
69971;BME280;57301;50.328;8.542;2023-12-20T13:12:32;98373.09;;;7.82;75.40
69971;BME280;57301;50.328;8.542;2023-12-20T13:14:58;98365.63;;;7.28;76.64